Terminal Aerodrome Forecast
Issued by NWS

Home | Current Version | Previous Version | Text Only | Print | Product List | Glossary On
Versions: 1 2 3 4 5 6 7 8 9 10 11 12 13
000
FTUS43 KEAX 302300
TAFSTJ
TAF
KSTJ 302320Z 3100/3124 34012KT P6SM SCT060
     FM310200 34014G20KT P6SM SCT025 SCT040
     FM311200 01013G21KT P6SM SKC
     FM311800 02012KT P6SM SKC=

USA.gov is the U.S. government's official web portal to all federal, state and local government web resources and services.